createdAt,value
2022-12-06T00:01:40.406Z,102318.16
2022-12-06T00:04:11.666Z,102322.56
2022-12-06T00:06:47.847Z,102321.66
2022-12-06T00:09:29.615Z,102322.50
2022-12-06T00:11:57.771Z,102321.66
2022-12-06T00:14:25.962Z,102314.59
2022-12-06T00:16:53.180Z,102319.91
2022-12-06T00:19:23.501Z,102314.59
2022-12-06T00:21:51.534Z,102309.34
2022-12-06T00:24:21.762Z,102322.53
2022-12-06T00:26:50.645Z,102320.75
2022-12-06T00:29:23.999Z,102323.44
2022-12-06T00:31:51.644Z,102323.44
2022-12-06T00:34:19.017Z,102317.25
2022-12-06T00:36:46.258Z,102317.25
2022-12-06T00:39:16.350Z,102327.78
2022-12-06T00:41:44.296Z,102322.50
2022-12-06T00:44:12.067Z,102317.28
2022-12-06T00:46:40.041Z,102321.66
2022-12-06T00:49:09.165Z,102319.88
2022-12-06T00:51:37.806Z,102319.00
2022-12-06T00:54:06.025Z,102322.53
2022-12-06T00:56:35.679Z,102319.91
2022-12-06T00:59:02.979Z,102323.44
2022-12-06T01:01:33.536Z,102326.97
2022-12-06T01:04:03.746Z,102319.91
2022-12-06T01:06:33.565Z,102327.84
2022-12-06T01:09:07.111Z,102324.31
2022-12-06T01:11:34.526Z,102320.81
2022-12-06T01:14:02.398Z,102322.56
2022-12-06T01:16:31.189Z,102321.69
2022-12-06T01:19:02.161Z,102324.34
2022-12-06T01:21:30.347Z,102319.91
2022-12-06T01:23:58.345Z,102316.41
2022-12-06T01:26:29.764Z,102319.91
2022-12-06T01:28:59.177Z,102322.53
2022-12-06T01:31:35.530Z,102325.19
2022-12-06T01:34:04.843Z,102324.34
2022-12-06T01:36:32.050Z,102329.63
2022-12-06T01:39:01.038Z,102319.09
2022-12-06T01:41:28.578Z,102319.03
2022-12-06T01:43:56.601Z,102318.19
2022-12-06T01:46:42.258Z,102308.50
2022-12-06T01:49:18.842Z,102310.25
2022-12-06T01:51:55.075Z,102312.03
2022-12-06T01:54:24.552Z,102306.75
2022-12-06T01:56:54.306Z,102306.75
2022-12-06T01:59:22.935Z,102301.44
2022-12-06T02:01:50.598Z,102294.38
2022-12-06T02:04:19.327Z,102293.47
2022-12-06T02:06:47.010Z,102297.84
2022-12-06T02:09:15.822Z,102297.88
2022-12-06T02:11:43.762Z,102291.69
2022-12-06T02:14:19.309Z,102296.03
2022-12-06T02:17:11.254Z,102299.50
2022-12-06T02:20:15.397Z,102299.47
2022-12-06T02:23:27.414Z,102297.66
2022-12-06T02:26:20.342Z,102293.16
2022-12-06T02:29:29.467Z,102296.72
2022-12-06T02:32:54.810Z,102286.16
2022-12-06T02:35:34.477Z,102292.28
2022-12-06T02:38:42.732Z,102289.59
2022-12-06T02:41:25.585Z,102294.88
2022-12-06T02:44:00.286Z,102286.09
2022-12-06T02:46:33.150Z,102297.50
2022-12-06T02:49:04.658Z,102291.34
2022-12-06T02:51:35.042Z,102287.78
2022-12-06T02:54:07.358Z,102293.97
2022-12-06T02:56:37.918Z,102293.94
2022-12-06T02:59:05.632Z,102293.97
2022-12-06T03:01:42.019Z,102290.44
2022-12-06T03:04:31.430Z,102293.09
2022-12-06T03:07:23.999Z,102293.09
2022-12-06T03:10:33.637Z,102286.06
2022-12-06T03:13:30.219Z,102295.75
2022-12-06T03:16:12.037Z,102296.63
2022-12-06T03:18:57.458Z,102290.50
2022-12-06T03:21:47.165Z,102285.19
2022-12-06T03:24:16.566Z,102289.63
2022-12-06T03:26:50.685Z,102286.97
2022-12-06T03:29:22.231Z,102288.69
2022-12-06T03:31:50.727Z,102282.53
2022-12-06T03:34:35.414Z,102289.59
2022-12-06T03:37:04.698Z,102277.28
2022-12-06T03:39:58.376Z,102285.19
2022-12-06T03:42:25.854Z,102285.22
2022-12-06T03:44:53.169Z,102277.28
2022-12-06T03:48:05.479Z,102282.56
2022-12-06T03:50:59.833Z,102284.31
2022-12-06T03:53:27.039Z,102276.41
2022-12-06T03:55:54.081Z,102283.44
2022-12-06T03:58:21.198Z,102279.03
2022-12-06T04:00:49.167Z,102276.38
2022-12-06T04:03:16.448Z,102279.88
2022-12-06T04:05:43.577Z,102278.13
2022-12-06T04:08:10.729Z,102277.25
2022-12-06T04:10:37.846Z,102286.94
2022-12-06T04:13:06.099Z,102277.22
2022-12-06T04:15:38.040Z,102286.91
2022-12-06T04:18:14.905Z,102278.97
2022-12-06T04:21:17.298Z,102277.16
2022-12-06T04:23:48.395Z,102279.81
2022-12-06T04:26:20.046Z,102285.97
2022-12-06T04:29:06.446Z,102282.47
2022-12-06T04:31:52.398Z,102284.25
2022-12-06T04:34:38.323Z,102282.50
2022-12-06T04:37:24.792Z,102277.16
2022-12-06T04:39:51.922Z,102283.31
2022-12-06T04:42:38.401Z,102277.13
2022-12-06T04:45:07.119Z,102280.69
2022-12-06T04:47:34.175Z,102279.78
2022-12-06T04:50:01.624Z,102282.41
2022-12-06T04:52:34.096Z,102274.50
2022-12-06T04:55:03.070Z,102274.50
2022-12-06T04:57:30.135Z,102268.38
2022-12-06T04:59:57.279Z,102264.88
2022-12-06T05:02:24.434Z,102269.25
2022-12-06T05:04:51.514Z,102270.13
2022-12-06T05:07:18.549Z,102271.84
2022-12-06T05:09:45.591Z,102270.97
2022-12-06T05:12:12.646Z,102269.22
2022-12-06T05:14:39.698Z,102268.34
2022-12-06T05:17:06.734Z,102267.47
2022-12-06T05:19:33.837Z,102271.84
2022-12-06T05:22:00.892Z,102263.91
2022-12-06T05:24:27.935Z,102263.03
2022-12-06T05:26:55.063Z,102263.91
2022-12-06T05:29:22.199Z,102264.78
2022-12-06T05:31:49.501Z,102266.59
2022-12-06T05:34:16.658Z,102264.78
2022-12-06T05:36:45.777Z,102263.06
2022-12-06T05:39:12.939Z,102269.19
2022-12-06T05:41:39.992Z,102264.81
2022-12-06T05:44:07.106Z,102263.91
2022-12-06T05:46:34.153Z,102267.41
2022-12-06T05:49:01.259Z,102264.78
2022-12-06T05:51:28.363Z,102263.03
2022-12-06T05:53:55.398Z,102260.38
2022-12-06T05:56:22.463Z,102263.00
2022-12-06T05:58:49.490Z,102267.41
2022-12-06T06:01:16.567Z,102260.38
2022-12-06T06:03:47.529Z,102262.97
2022-12-06T06:06:15.313Z,102268.22
2022-12-06T06:08:42.350Z,102272.63
2022-12-06T06:11:09.376Z,102261.13
2022-12-06T06:13:36.470Z,102266.44
2022-12-06T06:16:03.617Z,102269.03
2022-12-06T06:18:30.694Z,102266.34
2022-12-06T06:21:00.071Z,102262.00
2022-12-06T06:23:28.931Z,102264.59
2022-12-06T06:25:56.648Z,102263.69
2022-12-06T06:28:24.296Z,102266.25
2022-12-06T06:30:51.475Z,102268.06
2022-12-06T06:33:19.048Z,102262.81
2022-12-06T06:35:46.165Z,102266.31
2022-12-06T06:38:13.200Z,102269.81
2022-12-06T06:40:40.255Z,102268.91
2022-12-06T06:43:20.042Z,102263.63
2022-12-06T06:46:02.177Z,102267.16
2022-12-06T06:48:37.783Z,102266.28
2022-12-06T06:51:14.779Z,102261.84
2022-12-06T06:53:41.946Z,102267.97
2022-12-06T06:56:09.906Z,102270.63
2022-12-06T06:58:37.377Z,102267.09
2022-12-06T07:01:08.642Z,102271.50
2022-12-06T07:03:36.138Z,102265.31
2022-12-06T07:06:08.435Z,102264.47
2022-12-06T07:08:35.456Z,102261.81
2022-12-06T07:11:02.862Z,102271.47
2022-12-06T07:13:31.351Z,102266.13
2022-12-06T07:15:59.072Z,102258.16
2022-12-06T07:18:26.394Z,102263.41
2022-12-06T07:21:06.156Z,102250.97
2022-12-06T07:23:35.474Z,102255.31
2022-12-06T07:26:07.809Z,102257.00
2022-12-06T07:28:40.999Z,102255.97
2022-12-06T07:31:10.042Z,102255.78
2022-12-06T07:33:37.652Z,102258.38
2022-12-06T07:36:13.637Z,102262.66
2022-12-06T07:38:42.927Z,102264.25
2022-12-06T07:41:32.271Z,102264.97
2022-12-06T07:44:20.225Z,102263.13
2022-12-06T07:46:48.498Z,102262.97
2022-12-06T07:49:17.626Z,102273.44
2022-12-06T07:51:46.280Z,102269.81
2022-12-06T07:54:14.020Z,102277.59
2022-12-06T07:56:41.730Z,102270.44
2022-12-06T07:59:09.248Z,102275.59
2022-12-06T08:01:36.492Z,102282.59
2022-12-06T08:04:05.252Z,102277.19
2022-12-06T08:06:33.590Z,102278.03
2022-12-06T08:09:01.106Z,102280.59
2022-12-06T08:11:28.709Z,102281.38
2022-12-06T08:13:56.056Z,102285.69
2022-12-06T08:16:23.346Z,102285.63
2022-12-06T08:18:50.605Z,102296.06
2022-12-06T08:21:18.548Z,102282.88
2022-12-06T08:23:45.662Z,102288.94
2022-12-06T08:26:15.768Z,102285.38
2022-12-06T08:28:46.003Z,102290.56
2022-12-06T08:31:22.948Z,102287.03
2022-12-06T08:33:50.857Z,102295.78
2022-12-06T08:36:21.742Z,102295.75
2022-12-06T08:38:50.431Z,102292.22
2022-12-06T08:41:36.442Z,102292.19
2022-12-06T08:44:04.654Z,102293.94
2022-12-06T08:46:35.170Z,102296.63
2022-12-06T08:49:02.771Z,102293.97
2022-12-06T08:51:31.440Z,102290.44
2022-12-06T08:53:58.926Z,102292.22
2022-12-06T08:56:26.743Z,102296.59
2022-12-06T08:58:55.417Z,102294.00
2022-12-06T09:01:31.231Z,102294.91
2022-12-06T09:04:03.516Z,102295.00
2022-12-06T09:06:31.168Z,102295.94
2022-12-06T09:08:58.628Z,102298.66
2022-12-06T09:11:26.708Z,102290.75
2022-12-06T09:13:53.794Z,102286.50
2022-12-06T09:16:23.551Z,102278.69
2022-12-06T09:18:51.635Z,102286.59
2022-12-06T09:21:25.662Z,102292.78
2022-12-06T09:23:56.427Z,102288.53
2022-12-06T09:26:24.210Z,102292.13
2022-12-06T09:28:52.730Z,102294.06
2022-12-06T09:31:20.294Z,102298.09
2022-12-06T09:33:47.635Z,102296.28
2022-12-06T09:36:26.667Z,102297.31
2022-12-06T09:39:21.472Z,102295.41
2022-12-06T09:42:10.944Z,102291.56
2022-12-06T09:45:45.467Z,102287.47
2022-12-06T09:49:00.224Z,102282.38
2022-12-06T09:52:11.485Z,102285.03
2022-12-06T09:55:00.589Z,102283.22
2022-12-06T09:58:01.892Z,102284.03
2022-12-06T10:00:41.006Z,102285.81
2022-12-06T10:03:17.036Z,102275.13
2022-12-06T10:06:01.472Z,102276.81
2022-12-06T10:09:17.546Z,102272.38
2022-12-06T10:12:13.567Z,102271.50
2022-12-06T10:15:04.602Z,102268.03
2022-12-06T10:17:52.052Z,102262.75
2022-12-06T10:20:36.498Z,102265.41
2022-12-06T10:23:40.336Z,102265.38
2022-12-06T10:26:16.806Z,102267.09
2022-12-06T10:28:48.176Z,102256.50
2022-12-06T10:31:22.986Z,102252.03
2022-12-06T10:34:12.235Z,102247.75
2022-12-06T10:37:08.232Z,102251.47
2022-12-06T10:39:55.437Z,102247.91
2022-12-06T10:42:51.563Z,102240.88
2022-12-06T10:46:09.005Z,102239.09
2022-12-06T10:49:00.926Z,102241.72
2022-12-06T10:51:39.947Z,102243.50
2022-12-06T10:54:25.795Z,102249.69
2022-12-06T10:56:57.351Z,102243.47
2022-12-06T10:59:42.196Z,102238.19
2022-12-06T11:02:53.564Z,102236.44
2022-12-06T11:05:46.261Z,102240.00
2022-12-06T11:08:20.878Z,102246.16
2022-12-06T11:10:48.613Z,102239.13
2022-12-06T11:13:40.514Z,102240.00
2022-12-06T11:16:17.982Z,102248.81
2022-12-06T11:18:47.844Z,102236.41
2022-12-06T11:21:40.605Z,102232.91
2022-12-06T11:24:30.642Z,102226.69
2022-12-06T11:27:12.591Z,102231.09
2022-12-06T11:29:42.000Z,102222.28
2022-12-06T11:32:11.588Z,102220.50
2022-12-06T11:34:53.202Z,102224.00
2022-12-06T11:37:24.032Z,102218.72
2022-12-06T11:39:56.467Z,102215.19
2022-12-06T11:42:27.661Z,102215.16
2022-12-06T11:45:33.612Z,102211.63
2022-12-06T11:48:31.811Z,102207.19
2022-12-06T11:50:58.930Z,102196.59
2022-12-06T11:53:46.856Z,102206.34
2022-12-06T11:56:26.563Z,102195.75
2022-12-06T11:59:28.374Z,102201.03
2022-12-06T12:02:01.664Z,102196.63
2022-12-06T12:04:43.367Z,102195.75
2022-12-06T12:07:10.791Z,102199.28
2022-12-06T12:09:51.021Z,102203.69
2022-12-06T12:12:46.499Z,102201.03
2022-12-06T12:15:19.024Z,102197.50
2022-12-06T12:17:50.249Z,102198.41
2022-12-06T12:20:29.438Z,102193.09
2022-12-06T12:23:17.659Z,102184.25
2022-12-06T12:26:02.756Z,102176.31
2022-12-06T12:28:33.730Z,102185.19
2022-12-06T12:31:20.799Z,102177.25
2022-12-06T12:33:48.758Z,102180.78
2022-12-06T12:36:28.770Z,102181.66
2022-12-06T12:39:03.104Z,102178.13
2022-12-06T12:41:42.978Z,102168.44
2022-12-06T12:44:42.444Z,102176.34
2022-12-06T12:47:20.661Z,102163.16
2022-12-06T12:50:18.118Z,102164.88
2022-12-06T12:52:46.102Z,102159.63
2022-12-06T12:55:13.391Z,102161.38
2022-12-06T12:57:47.158Z,102158.75
2022-12-06T13:00:22.495Z,102159.59
2022-12-06T13:03:00.376Z,102151.69
2022-12-06T13:05:39.615Z,102156.09
2022-12-06T13:08:19.164Z,102150.78
2022-12-06T13:10:55.532Z,102157.84
2022-12-06T13:13:33.115Z,102149.00
2022-12-06T13:16:04.640Z,102149.91
2022-12-06T13:18:46.654Z,102144.59
2022-12-06T13:21:32.095Z,102144.63
2022-12-06T13:24:17.678Z,102140.22
2022-12-06T13:26:54.107Z,102139.31
2022-12-06T13:29:50.311Z,102135.81
2022-12-06T13:32:24.308Z,102141.97
2022-12-06T13:35:06.744Z,102139.31
2022-12-06T13:37:57.715Z,102141.09
2022-12-06T13:40:33.548Z,102133.16
2022-12-06T13:43:06.432Z,102140.19
2022-12-06T13:45:45.375Z,102141.97
2022-12-06T13:48:24.460Z,102142.88
2022-12-06T13:50:58.016Z,102136.66
2022-12-06T13:53:28.285Z,102134.91
2022-12-06T13:56:28.729Z,102133.16
2022-12-06T13:58:58.269Z,102138.44
2022-12-06T14:01:44.850Z,102131.38
2022-12-06T14:04:24.285Z,102126.06
2022-12-06T14:09:46.334Z,102129.59
2022-12-06T14:12:22.686Z,102133.13
2022-12-06T14:15:01.682Z,102120.75
2022-12-06T14:18:03.005Z,102127.81
2022-12-06T14:20:32.181Z,102128.69
2022-12-06T14:23:00.850Z,102121.66
2022-12-06T14:25:31.340Z,102119.03
2022-12-06T14:28:13.536Z,102119.00
2022-12-06T14:30:41.957Z,102113.72
2022-12-06T14:33:24.815Z,102114.59
2022-12-06T14:35:54.170Z,102113.75
2022-12-06T14:38:30.808Z,102110.19
2022-12-06T14:41:18.511Z,102111.09
2022-12-06T14:43:48.507Z,102104.03
2022-12-06T14:46:18.056Z,102112.81
2022-12-06T14:49:04.825Z,102104.88
2022-12-06T14:51:38.496Z,102108.41
2022-12-06T14:54:27.327Z,102106.66
2022-12-06T14:56:54.464Z,102091.66
2022-12-06T15:00:02.948Z,102096.03
2022-12-06T15:02:28.296Z,102100.44
2022-12-06T15:04:55.838Z,102096.03
2022-12-06T15:07:38.618Z,102088.97
2022-12-06T15:10:29.801Z,102089.88
2022-12-06T15:13:16.937Z,102081.03
2022-12-06T15:15:47.672Z,102090.75
2022-12-06T15:18:25.723Z,102079.25
2022-12-06T15:20:53.938Z,102087.22
2022-12-06T15:23:48.269Z,102083.63
2022-12-06T15:26:15.823Z,102074.84
2022-12-06T15:28:43.099Z,102077.47
2022-12-06T15:31:29.833Z,102080.13
2022-12-06T15:33:57.352Z,102076.59
2022-12-06T15:36:30.860Z,102083.63
2022-12-06T15:38:58.195Z,102081.00
2022-12-06T15:41:30.380Z,102080.13
2022-12-06T15:43:57.622Z,102069.53
2022-12-06T15:46:29.401Z,102073.94
2022-12-06T15:48:57.214Z,102067.75
2022-12-06T15:51:27.178Z,102073.94
2022-12-06T15:53:57.574Z,102073.94
2022-12-06T15:56:29.737Z,102078.31
2022-12-06T15:58:56.997Z,102077.44
2022-12-06T16:01:28.011Z,102080.09
2022-12-06T16:03:56.740Z,102076.56
2022-12-06T16:06:26.496Z,102071.28
2022-12-06T16:08:54.002Z,102082.72
2022-12-06T16:11:25.059Z,102068.63
2022-12-06T16:13:52.719Z,102072.09
2022-12-06T16:16:22.518Z,102071.22
2022-12-06T16:18:50.733Z,102073.88
2022-12-06T16:21:33.280Z,102075.63
2022-12-06T16:24:17.520Z,102078.25
2022-12-06T16:26:45.786Z,102076.47
2022-12-06T16:29:24.697Z,102072.94
2022-12-06T16:31:53.067Z,102069.44
2022-12-06T16:34:21.081Z,102065.94
2022-12-06T16:37:09.184Z,102072.94
2022-12-06T16:39:36.359Z,102065.00
2022-12-06T16:42:06.509Z,102062.41
2022-12-06T16:44:33.775Z,102067.66
2022-12-06T16:47:00.889Z,102066.78
2022-12-06T16:49:48.676Z,102059.72
2022-12-06T16:52:17.126Z,102057.09
2022-12-06T16:54:44.272Z,102053.53
2022-12-06T16:57:12.784Z,102051.78
2022-12-06T16:59:40.388Z,102049.97
2022-12-06T17:02:29.965Z,102042.88
2022-12-06T17:05:01.183Z,102037.59
2022-12-06T17:07:29.187Z,102042.88
2022-12-06T17:09:56.537Z,102044.59
2022-12-06T17:12:24.005Z,102043.72
2022-12-06T17:14:51.536Z,102048.97
2022-12-06T17:17:21.924Z,102041.06
2022-12-06T17:19:49.665Z,102039.28
2022-12-06T17:22:18.577Z,102042.81
2022-12-06T17:24:46.300Z,102047.22
2022-12-06T17:27:14.776Z,102041.94
2022-12-06T17:29:43.732Z,102048.09
2022-12-06T17:32:11.716Z,102042.84
2022-12-06T17:34:38.861Z,102041.94
2022-12-06T17:37:06.112Z,102040.19
2022-12-06T17:39:33.642Z,102037.53
2022-12-06T17:42:19.660Z,102031.38
2022-12-06T17:44:46.777Z,102033.16
2022-12-06T17:47:13.901Z,102025.25
2022-12-06T17:49:41.018Z,102024.38
2022-12-06T17:52:08.065Z,102021.69
2022-12-06T17:54:35.101Z,102022.56
2022-12-06T17:57:02.202Z,102029.56
2022-12-06T17:59:32.220Z,102019.84
2022-12-06T18:02:17.978Z,102026.91
2022-12-06T18:04:47.234Z,102023.34
2022-12-06T18:07:15.062Z,102028.63
2022-12-06T18:09:42.195Z,102039.19
2022-12-06T18:12:11.295Z,102031.25
2022-12-06T18:14:38.421Z,102039.19
2022-12-06T18:17:05.727Z,102034.72
2022-12-06T18:19:33.978Z,102036.47
2022-12-06T18:22:01.315Z,102042.59
2022-12-06T18:24:33.516Z,102044.31
2022-12-06T18:27:02.553Z,102041.69
2022-12-06T18:29:29.643Z,102041.69
2022-12-06T18:31:56.853Z,102036.34
2022-12-06T18:34:24.612Z,102038.06
2022-12-06T18:36:52.052Z,102035.38
2022-12-06T18:39:26.004Z,102035.44
2022-12-06T18:41:55.071Z,102032.72
2022-12-06T18:44:23.160Z,102029.22
2022-12-06T18:46:50.409Z,102028.34
2022-12-06T18:49:17.632Z,102035.38
2022-12-06T18:51:44.768Z,102031.84
2022-12-06T18:54:13.902Z,102026.59
2022-12-06T18:56:41.935Z,102026.59
2022-12-06T18:59:10.619Z,102031.00
2022-12-06T19:01:39.535Z,102031.91
2022-12-06T19:04:09.391Z,102025.72
2022-12-06T19:06:38.348Z,102021.31
2022-12-06T19:09:12.772Z,102027.47
2022-12-06T19:11:43.247Z,102030.13
2022-12-06T19:14:10.397Z,102025.75
2022-12-06T19:16:47.440Z,102034.56
2022-12-06T19:19:23.546Z,102032.78
2022-12-06T19:21:52.451Z,102036.34
2022-12-06T19:24:25.253Z,102032.84
2022-12-06T19:26:54.130Z,102035.50
2022-12-06T19:29:21.930Z,102035.50
2022-12-06T19:31:49.162Z,102042.56
2022-12-06T19:34:26.226Z,102042.56
2022-12-06T19:36:55.404Z,102037.28
2022-12-06T19:39:23.690Z,102041.69
2022-12-06T19:42:09.349Z,102032.88
2022-12-06T19:44:36.487Z,102026.75
2022-12-06T19:47:03.923Z,102038.16
2022-12-06T19:49:31.225Z,102039.94
2022-12-06T19:51:58.499Z,102040.81
2022-12-06T19:54:29.645Z,102040.78
2022-12-06T19:56:58.942Z,102036.41
2022-12-06T19:59:30.300Z,102034.66
2022-12-06T20:02:00.699Z,102031.06
2022-12-06T20:04:34.546Z,102032.84
2022-12-06T20:07:02.058Z,102038.97
2022-12-06T20:09:30.941Z,102037.25
2022-12-06T20:12:03.744Z,102036.38
2022-12-06T20:14:41.483Z,102035.44
2022-12-06T20:17:19.098Z,102036.31
2022-12-06T20:19:46.578Z,102035.41
2022-12-06T20:22:15.917Z,102026.63
2022-12-06T20:24:43.548Z,102034.47
2022-12-06T20:27:11.437Z,102038.81
2022-12-06T20:29:38.722Z,102039.66
2022-12-06T20:32:06.047Z,102039.72
2022-12-06T20:34:34.831Z,102045.84
2022-12-06T20:37:05.018Z,102039.69
2022-12-06T20:39:34.959Z,102047.59
2022-12-06T20:42:03.333Z,102042.34
2022-12-06T20:44:31.430Z,102030.94
2022-12-06T20:46:58.608Z,102024.81
2022-12-06T20:49:25.729Z,102031.84
2022-12-06T20:51:53.763Z,102033.63
2022-12-06T20:54:21.823Z,102028.34
2022-12-06T20:56:51.502Z,102032.72
2022-12-06T20:59:19.402Z,102034.53
2022-12-06T21:01:46.640Z,102030.06
2022-12-06T21:04:15.097Z,102035.38
2022-12-06T21:06:42.761Z,102031.00
2022-12-06T21:09:10.090Z,102033.63
2022-12-06T21:11:37.520Z,102029.25
2022-12-06T21:14:05.784Z,102028.38
2022-12-06T21:16:34.264Z,102029.25
2022-12-06T21:19:05.147Z,102019.56
2022-12-06T21:21:36.368Z,102024.00
2022-12-06T21:24:13.880Z,102020.44
2022-12-06T21:26:41.090Z,102030.06
2022-12-06T21:29:09.535Z,102030.97
2022-12-06T21:31:38.357Z,102027.34
2022-12-06T21:34:05.946Z,102027.41
2022-12-06T21:36:33.817Z,102030.91
2022-12-06T21:39:00.999Z,102035.19
2022-12-06T21:41:28.381Z,102027.28
2022-12-06T21:43:55.666Z,102034.22
2022-12-06T21:46:25.671Z,102031.56
2022-12-06T21:48:55.385Z,102027.16
2022-12-06T21:51:24.731Z,102030.69
2022-12-06T21:53:52.022Z,102030.69
2022-12-06T21:56:26.419Z,102027.13
2022-12-06T21:58:54.400Z,102033.28
2022-12-06T22:01:28.118Z,102033.25
2022-12-06T22:03:58.151Z,102029.75
2022-12-06T22:06:25.702Z,102034.94
2022-12-06T22:08:58.753Z,102033.06
2022-12-06T22:11:26.569Z,102030.47
2022-12-06T22:13:53.882Z,102031.25
2022-12-06T22:16:20.998Z,102032.06
2022-12-06T22:18:48.311Z,102042.53
2022-12-06T22:21:19.480Z,102044.28
2022-12-06T22:23:47.961Z,102038.94
2022-12-06T22:26:19.811Z,102037.97
2022-12-06T22:28:48.255Z,102043.22
2022-12-06T22:31:28.265Z,102045.81
2022-12-06T22:33:57.462Z,102047.53
2022-12-06T22:36:25.194Z,102059.78
2022-12-06T22:38:55.091Z,102052.69
2022-12-06T22:41:23.771Z,102050.94
2022-12-06T22:43:53.591Z,102057.94
2022-12-06T22:46:21.189Z,102051.69
2022-12-06T22:48:49.354Z,102057.84
2022-12-06T22:51:26.351Z,102055.16
2022-12-06T22:54:03.567Z,102041.91
2022-12-06T22:56:33.401Z,102045.38
2022-12-06T22:59:01.961Z,102041.78
2022-12-06T23:01:34.986Z,102042.56
2022-12-06T23:04:05.628Z,102046.91
2022-12-06T23:06:35.754Z,102039.81
2022-12-06T23:09:04.950Z,102044.16
2022-12-06T23:11:34.606Z,102033.56
2022-12-06T23:14:04.184Z,102042.31
2022-12-06T23:16:32.778Z,102044.00
2022-12-06T23:19:02.319Z,102045.69
2022-12-06T23:21:33.976Z,102043.06
2022-12-06T23:24:05.218Z,102046.53
2022-12-06T23:26:42.038Z,102053.47
2022-12-06T23:29:09.361Z,102050.81
2022-12-06T23:31:40.210Z,102044.66
2022-12-06T23:34:22.361Z,102056.00
2022-12-06T23:36:50.070Z,102043.72
2022-12-06T23:39:17.506Z,102049.78
2022-12-06T23:41:44.971Z,102051.50
2022-12-06T23:44:13.546Z,102053.25
2022-12-06T23:46:42.437Z,102054.13
2022-12-06T23:49:20.221Z,102050.59
2022-12-06T23:51:48.115Z,102047.97
2022-12-06T23:54:17.337Z,102045.34
2022-12-06T23:56:45.153Z,102045.34
2022-12-06T23:59:14.746Z,102044.47
